Terminal Aerodrome Forecast
Issued by NWS North Platte, NE

Current Version | Previous Version | Text Only | Print | Product List | Glossary On
Versions: 1 2 3 4 5 6 7 8 9 10 11 12 13 14 15 16 17 18 19 20 21 22 23 24 25 26 27 28 29 30
327
FTUS43 KLBF 291124
TAFVTN
TAF
KVTN 291124Z 2912/3012 VRB03KT P6SM SCT005 BKN020 OVC090
      TEMPO 2912/2913 5SM BR OVC005
     FM291400 18004KT P6SM FEW015 BKN150
     FM291800 12006KT P6SM SCT050 SCT100 BKN200
     FM292100 14008KT P6SM BKN050 BKN100 PROB30 2923/3002 4SM TSRA
      OVC040CB=

USA.gov is the U.S. government's official web portal to all federal, state and local government web resources and services.